This is the latest recevied weather packets stored in our database for station/object DL7MAP-13. If no packets are shown the sender has not sent any weather packets the latest 10 day(s).
| Time | Temp. | Humidity | Pressure | Rain* | Wind** | Luminosity | Snow |
|---|---|---|---|---|---|---|---|
| 1777885987 | 21.67° C | 55% | 1007.3 hPa | - | - | - | - |
| 1777885087 | 20.56° C | 57% | 1009.1 hPa | - | - | - | - |
| 1777884187 | 20° C | 58% | 1008.5 hPa | - | - | - | - |
| 1777883287 | 20° C | 57% | 1007.3 hPa | - | - | - | - |
| 1777882387 | 20.56° C | 58% | 1008.1 hPa | - | - | - | - |
| 1777881487 | 20° C | 59% | 1007.1 hPa | - | - | - | - |
| 1777880587 | 20° C | 60% | 1007.1 hPa | - | - | - | - |
| 1777879687 | 20° C | 60% | 1007.5 hPa | - | - | - | - |
| 1777878787 | 18.33° C | 63% | 1007.2 hPa | - | - | - | - |
| 1777877887 | 18.33° C | 63% | 1007.5 hPa | - | - | - | - |
| 1777876987 | 18.33° C | 64% | 1007.7 hPa | - | - | - | - |
| 1777876088 | 17.22° C | 67% | 1007.3 hPa | - | - | - | - |
| 1777875187 | 16.67° C | 69% | 1007.4 hPa | - | - | - | - |
| 1777874287 | 16.67° C | 69% | 1007.2 hPa | - | - | - | - |
| 1777873387 | 16.11° C | 70% | 1007.2 hPa | - | - | - | - |
| 1777872487 | 16.11° C | 70% | 1006.7 hPa | - | - | - | - |
| 1777871587 | 16.11° C | 69% | 1006.4 hPa | - | - | - | - |
| 1777870686 | 16.11° C | 69% | 1007.1 hPa | - | - | - | - |
| 1777869787 | 16.11° C | 68% | 1006.2 hPa | - | - | - | - |
| 1777868887 | 16.11° C | 68% | 1006.3 hPa | - | - | - | - |
| 1777867987 | 16.11° C | 67% | 1006.2 hPa | - | - | - | - |
| 1777867087 | 16.67° C | 67% | 1006.2 hPa | - | - | - | - |
| 1777866187 | 16.67° C | 66% | 1006 hPa | - | - | - | - |
| 1777865287 | 17.78° C | 59% | 1006 hPa | - | - | - | - |
| 1777864386 | 17.78° C | 53% | 1005.5 hPa | - | - | - | - |
* Rain since midnight (hover to see other rain measurements)
** Current wind speed in m/s (hover to see current wind gust speed)